Time;durP1;ratioP1;P1;durP2;ratioP2;P2;SDS_P1;SDS_P2;PMS_P1;PMS_P2;Temp;Humidity;BMP_temperature;BMP_pressure;BME280_temperature;BME280_humidity;BME280_pressure;Samples;Min_cycle;Max_cycle;Signal;HPM_P1;HPM_P2
2021/03/06 00:00:56;;;;;;;8.32;2.28;;;;;;;-0.44;62.07;102371.94;5027617;28;20470;-80
2021/03/06 00:03:25;;;;;;;4.90;2.42;;;;;;;-0.51;61.74;102370.09;4992610;28;20045;-79
2021/03/06 00:05:56;;;;;;;11.95;3.05;;;;;;;-0.26;62.15;102372.19;5013165;28;20116;-82
2021/03/06 00:08:24;;;;;;;7.68;2.17;;;;;;;-0.34;61.88;102373.81;4993582;28;20045;-81
2021/03/06 00:10:54;;;;;;;6.65;2.70;;;;;;;-0.29;62.12;102371.28;4990990;28;20089;-79
2021/03/06 00:13:23;;;;;;;7.05;3.03;;;;;;;-0.43;61.68;102372.81;5017516;28;20081;-79
2021/03/06 00:15:50;;;;;;;9.38;3.20;;;;;;;-0.51;62.85;102380.44;4998579;28;20092;-80
2021/03/06 00:18:17;;;;;;;15.07;3.72;;;;;;;-0.48;62.88;102377.94;4996570;28;20051;-80
2021/03/06 00:20:44;;;;;;;5.30;3.10;;;;;;;-0.77;62.49;102380.94;5028218;28;20021;-80
2021/03/06 00:23:13;;;;;;;6.18;2.97;;;;;;;-0.86;63.72;102379.91;5039813;28;20034;-80
2021/03/06 00:25:40;;;;;;;7.90;3.40;;;;;;;-0.96;64.50;102381.47;5012131;28;20053;-80
2021/03/06 00:28:06;;;;;;;6.50;3.13;;;;;;;-0.94;64.64;102376.34;4975758;28;20065;-80
2021/03/06 00:30:33;;;;;;;5.97;3.22;;;;;;;-0.85;65.18;102374.78;5015574;28;20237;-81
2021/03/06 00:33:01;;;;;;;6.97;3.28;;;;;;;-0.70;64.34;102375.84;5032352;28;20073;-79
2021/03/06 00:35:29;;;;;;;6.60;3.90;;;;;;;-0.65;63.66;102375.06;5033228;28;20046;-82
2021/03/06 00:37:57;;;;;;;6.35;2.80;;;;;;;-0.68;64.09;102371.56;5007020;28;20202;-81
2021/03/06 00:40:24;;;;;;;9.85;4.07;;;;;;;-0.70;64.22;102362.94;5029447;28;20076;-81
2021/03/06 00:42:52;;;;;;;5.20;2.83;;;;;;;-0.66;64.89;102368.16;4995681;28;20050;-78
2021/03/06 00:45:19;;;;;;;8.35;3.85;;;;;;;-0.48;63.37;102361.53;4991611;28;20042;-79
2021/03/06 00:47:46;;;;;;;7.78;3.50;;;;;;;-0.62;63.64;102367.38;4991194;28;20084;-79
2021/03/06 00:50:16;;;;;;;13.93;3.58;;;;;;;-0.63;64.32;102359.56;5007201;28;20061;-80
2021/03/06 00:52:43;;;;;;;7.72;2.75;;;;;;;-0.74;64.38;102354.25;5008198;28;20096;-80
2021/03/06 00:55:10;;;;;;;8.43;2.75;;;;;;;-0.67;64.71;102365.56;5008876;28;20054;-80
2021/03/06 00:57:36;;;;;;;12.32;4.32;;;;;;;-0.46;63.76;102357.25;5014162;28;20021;-77
2021/03/06 01:00:04;;;;;;;6.03;2.50;;;;;;;-0.66;63.23;102356.97;5032074;28;20429;-81
2021/03/06 01:02:31;;;;;;;9.07;2.53;;;;;;;-0.56;62.80;102353.66;4983300;28;20097;-79
2021/03/06 01:04:58;;;;;;;4.30;2.40;;;;;;;-0.53;63.00;102357.16;5021785;28;20045;-78
2021/03/06 01:07:25;;;;;;;6.22;2.25;;;;;;;-0.44;62.82;102351.25;5027373;28;20046;-79
2021/03/06 01:09:52;;;;;;;6.43;3.47;;;;;;;-0.54;62.92;102350.25;5018557;28;20077;-81
2021/03/06 01:12:19;;;;;;;9.73;2.40;;;;;;;-0.56;62.64;102345.91;5027281;28;20057;-81
2021/03/06 01:14:45;;;;;;;10.25;2.40;;;;;;;-0.80;62.90;102352.44;5004492;28;20105;-82
2021/03/06 01:17:12;;;;;;;6.10;2.35;;;;;;;-0.68;62.87;102358.63;4999726;28;20575;-80
2021/03/06 01:19:39;;;;;;;4.35;2.30;;;;;;;-0.74;63.00;102351.66;5014933;28;20133;-81
2021/03/06 01:22:06;;;;;;;6.80;2.40;;;;;;;-0.53;62.45;102344.22;5017874;28;20081;-81
2021/03/06 01:24:36;;;;;;;5.13;2.60;;;;;;;-0.65;62.20;102343.16;4995887;28;20042;-81
2021/03/06 01:27:03;;;;;;;6.95;2.97;;;;;;;-0.74;62.13;102346.50;5002057;28;20106;-81
2021/03/06 01:29:30;;;;;;;7.10;2.88;;;;;;;-0.57;62.53;102341.56;5021620;28;20050;-80
2021/03/06 01:31:57;;;;;;;5.75;2.40;;;;;;;-0.65;62.66;102340.59;4986666;28;20081;-81
2021/03/06 01:34:24;;;;;;;6.07;2.47;;;;;;;-0.73;62.14;102343.03;4986224;28;20041;-81
2021/03/06 01:36:53;;;;;;;12.02;2.72;;;;;;;-0.86;62.49;102336.81;5011778;28;20129;-79
2021/03/06 01:39:20;;;;;;;4.32;2.20;;;;;;;-0.84;61.95;102337.72;5013872;28;20057;-80
2021/03/06 01:41:48;;;;;;;7.90;2.80;;;;;;;-0.72;63.33;102328.41;5009436;28;20060;-83
2021/03/06 01:44:15;;;;;;;4.20;2.28;;;;;;;-0.66;63.45;102326.78;5021528;28;20078;-82
2021/03/06 01:46:42;;;;;;;5.47;2.42;;;;;;;-0.80;62.97;102333.47;5003681;28;20056;-80
2021/03/06 01:49:10;;;;;;;4.72;2.50;;;;;;;-0.88;63.03;102335.06;4991584;28;20073;-79
2021/03/06 01:51:37;;;;;;;9.07;2.38;;;;;;;-1.02;63.19;102338.31;5020048;28;20046;-81
2021/03/06 01:54:05;;;;;;;7.10;2.67;;;;;;;-1.07;62.57;102341.66;5026010;28;20053;-82
2021/03/06 01:56:33;;;;;;;4.78;2.38;;;;;;;-1.03;62.73;102336.56;5018631;28;20046;-79
2021/03/06 01:59:00;;;;;;;8.10;2.20;;;;;;;-0.93;63.25;102334.13;5006046;28;20030;-79
2021/03/06 02:01:30;;;;;;;7.43;3.45;;;;;;;-0.98;62.69;102339.22;5016283;28;20038;-80
2021/03/06 02:04:00;;;;;;;8.27;2.75;;;;;;;-0.92;62.70;102330.69;5000513;28;20046;-79
2021/03/06 02:06:26;;;;;;;8.20;2.72;;;;;;;-0.87;62.78;102332.50;5003745;28;20057;-81
2021/03/06 02:08:53;;;;;;;7.68;2.33;;;;;;;-0.78;63.10;102335.22;5023480;28;20056;-79
2021/03/06 02:11:43;;;;;;;8.27;3.83;;;;;;;-0.83;61.72;102331.69;5027788;28;20054;-83
2021/03/06 02:14:32;;;;;;;7.38;2.38;;;;;;;-1.05;62.44;102335.66;4980000;28;20141;-80
2021/03/06 02:17:10;;;;;;;5.20;2.33;;;;;;;-0.98;62.70;102325.44;4993724;28;20137;-80
2021/03/06 02:19:56;;;;;;;6.95;2.78;;;;;;;-1.04;62.98;102332.25;5011435;28;20137;-80
2021/03/06 02:23:01;;;;;;;6.68;3.40;;;;;;;-1.05;63.76;102327.03;5000048;28;20084;-82
2021/03/06 02:25:56;;;;;;;7.47;3.08;;;;;;;-1.03;63.78;102325.38;5011421;28;20045;-77
2021/03/06 02:28:44;;;;;;;6.53;3.08;;;;;;;-1.02;64.12;102320.22;4989210;28;20041;-79
2021/03/06 02:31:14;;;;;;;7.05;2.65;;;;;;;-0.97;64.13;102322.00;4979021;28;20563;-80
2021/03/06 02:33:44;;;;;;;5.78;2.50;;;;;;;-0.99;63.67;102315.91;4985284;28;20057;-80
2021/03/06 02:36:13;;;;;;;7.07;2.97;;;;;;;-1.14;64.69;102322.59;5020193;28;20040;-80
2021/03/06 02:38:40;;;;;;;6.55;2.55;;;;;;;-1.12;65.06;102323.50;4997599;28;20053;-80
2021/03/06 02:41:10;;;;;;;5.60;3.00;;;;;;;-1.06;65.08;102318.41;5019761;28;20076;-80
2021/03/06 02:43:37;;;;;;;10.75;3.42;;;;;;;-1.21;66.05;102320.75;5003185;28;20133;-80
2021/03/06 02:46:05;;;;;;;8.25;3.00;;;;;;;-1.13;66.31;102316.56;5007893;28;20045;-80
2021/03/06 02:48:36;;;;;;;6.47;2.85;;;;;;;-1.16;66.20;102316.53;5004624;28;20056;-80
2021/03/06 02:51:03;;;;;;;5.68;2.53;;;;;;;-1.09;66.30;102314.91;5007967;28;20110;-79
2021/03/06 02:53:30;;;;;;;9.13;3.38;;;;;;;-1.14;67.18;102307.09;5014219;28;20034;-78
2021/03/06 02:55:58;;;;;;;7.05;2.85;;;;;;;-1.08;67.44;102309.78;5007837;28;20070;-80
2021/03/06 02:58:28;;;;;;;9.40;2.83;;;;;;;-1.18;67.98;102307.88;5014985;28;20081;-80
2021/03/06 03:01:09;;;;;;;8.82;2.60;;;;;;;-1.22;68.88;102308.66;5015207;28;20431;-80
2021/03/06 03:03:49;;;;;;;9.02;2.92;;;;;;;-1.21;68.71;102306.97;4985797;28;20057;-82
2021/03/06 03:06:36;;;;;;;9.00;3.03;;;;;;;-0.95;68.54;102304.78;5019735;28;20054;-81
2021/03/06 03:09:12;;;;;;;8.27;3.40;;;;;;;-1.10;68.59;102310.59;5010099;28;20054;-82
2021/03/06 03:11:51;;;;;;;8.07;2.88;;;;;;;-1.06;69.52;102314.97;4996302;28;20076;-80
2021/03/06 03:14:22;;;;;;;10.32;3.50;;;;;;;-0.98;69.16;102322.84;4986587;28;20050;-81
2021/03/06 03:16:55;;;;;;;9.82;3.13;;;;;;;-0.89;69.10;102305.75;4981355;28;20069;-81
2021/03/06 03:19:31;;;;;;;6.97;3.17;;;;;;;-1.10;69.47;102310.59;5002841;28;20056;-81
2021/03/06 03:21:58;;;;;;;;;;;;;;;-1.21;70.12;102307.84;5014291;28;20061;-81
2021/03/06 03:24:26;;;;;;;8.07;2.72;;;;;;;-1.23;70.60;102306.94;5024278;28;19936;-80
2021/03/06 03:26:53;;;;;;;10.52;3.00;;;;;;;-1.19;70.71;102313.03;5009507;28;20034;-77
2021/03/06 03:29:20;;;;;;;9.85;3.53;;;;;;;-1.10;70.58;102308.88;4980069;28;20026;-77
2021/03/06 03:31:48;;;;;;;9.32;3.05;;;;;;;-1.15;71.22;102315.69;5019625;28;20085;-78
2021/03/06 03:34:17;;;;;;;8.75;2.97;;;;;;;-1.17;71.91;102312.22;5015942;28;20038;-78
2021/03/06 03:36:44;;;;;;;9.48;3.33;;;;;;;-1.21;71.93;102314.72;5009803;28;20033;-79
2021/03/06 03:39:11;;;;;;;7.45;2.58;;;;;;;-1.18;71.91;102318.22;5018734;28;20045;-79
2021/03/06 03:41:39;;;;;;;9.02;3.30;;;;;;;-1.13;71.75;102319.16;5016316;28;20026;-79
2021/03/06 03:44:06;;;;;;;9.25;3.10;;;;;;;-1.20;72.06;102324.22;5014144;28;20047;-79
2021/03/06 03:46:34;;;;;;;12.13;2.70;;;;;;;-1.18;72.03;102325.97;5036067;28;20030;-80
2021/03/06 03:49:03;;;;;;;6.22;2.42;;;;;;;-1.32;72.91;102330.03;5024822;28;20043;-80
2021/03/06 03:51:32;;;;;;;6.65;2.38;;;;;;;-1.22;72.73;102321.59;5036454;28;20096;-79
2021/03/06 03:53:59;;;;;;;5.97;3.10;;;;;;;-1.30;73.23;102328.34;5019610;28;20046;-79
2021/03/06 03:56:27;;;;;;;7.07;2.55;;;;;;;-1.22;73.68;102321.59;5010725;28;20050;-79
2021/03/06 03:58:54;;;;;;;7.07;2.40;;;;;;;-1.23;73.48;102327.59;5028947;28;20106;-78
2021/03/06 04:01:21;;;;;;;14.68;3.28;;;;;;;-1.25;72.74;102331.03;5034043;28;20052;-79
2021/03/06 04:03:48;;;;;;;6.95;3.00;;;;;;;-1.33;73.23;102336.91;5033328;28;20042;-79
2021/03/06 04:06:15;;;;;;;6.10;3.35;;;;;;;-1.54;74.42;102334.81;5039145;28;20122;-80
2021/03/06 04:08:42;;;;;;;13.27;2.78;;;;;;;-1.61;74.64;102327.81;5029686;28;20332;-79
2021/03/06 04:11:09;;;;;;;12.65;2.88;;;;;;;-1.42;74.70;102334.16;5010610;28;20073;-80
2021/03/06 04:13:36;;;;;;;7.50;2.80;;;;;;;-1.32;73.95;102327.44;5023532;28;20073;-79
2021/03/06 04:16:02;;;;;;;8.65;2.67;;;;;;;-1.52;74.08;102336.56;5031384;28;20042;-78
2021/03/06 04:18:30;;;;;;;7.38;2.90;;;;;;;-1.44;74.08;102334.97;5015715;28;20076;-80
2021/03/06 04:20:57;;;;;;;10.50;2.95;;;;;;;-1.37;73.94;102335.13;5016765;28;20081;-79
2021/03/06 04:23:24;;;;;;;10.60;2.85;;;;;;;-1.27;73.61;102333.56;5032413;28;20100;-79
2021/03/06 04:25:50;;;;;;;6.78;2.97;;;;;;;-1.41;73.73;102342.78;5015479;28;20612;-79
2021/03/06 04:28:17;;;;;;;14.45;5.05;;;;;;;-1.37;74.04;102344.59;5016996;28;20080;-81
2021/03/06 04:30:44;;;;;;;14.38;3.40;;;;;;;-1.67;74.90;102344.88;4993571;28;20046;-81
2021/03/06 04:33:11;;;;;;;5.82;2.53;;;;;;;-1.58;75.19;102348.50;5013973;28;20188;-78
2021/03/06 04:35:38;;;;;;;10.18;3.08;;;;;;;-1.49;74.71;102346.94;5033471;28;20052;-79
2021/03/06 04:38:08;;;;;;;8.00;2.38;;;;;;;-1.55;74.87;102352.88;5017904;28;20045;-78
2021/03/06 04:40:35;;;;;;;6.68;2.60;;;;;;;-1.65;75.92;102343.22;5028284;28;20047;-78
2021/03/06 04:43:02;;;;;;;12.32;2.78;;;;;;;-1.52;75.08;102349.50;5030445;28;20053;-79
2021/03/06 04:45:29;;;;;;;8.15;2.92;;;;;;;-1.46;75.83;102342.72;5024447;28;20049;-79
2021/03/06 04:47:57;;;;;;;9.25;2.75;;;;;;;-1.39;75.17;102344.56;5019256;28;20050;-81
2021/03/06 04:50:25;;;;;;;11.70;3.42;;;;;;;-1.49;75.16;102341.78;4996347;28;20073;-81
2021/03/06 04:52:52;;;;;;;16.90;3.05;;;;;;;-1.54;75.74;102347.72;4987449;28;20172;-81
2021/03/06 04:55:19;;;;;;;10.15;2.67;;;;;;;-1.50;75.64;102348.66;5035048;28;20038;-78
2021/03/06 04:57:47;;;;;;;9.82;3.13;;;;;;;-1.63;76.19;102344.97;5030761;28;20080;-81
2021/03/06 05:00:14;;;;;;;9.85;3.00;;;;;;;-1.57;76.21;102347.69;5019192;28;20045;-82
2021/03/06 05:02:41;;;;;;;14.75;3.60;;;;;;;-1.45;76.48;102351.31;5013030;28;20109;-82
2021/03/06 05:05:08;;;;;;;14.27;4.30;;;;;;;-1.49;76.12;102352.97;4998163;28;20046;-79
2021/03/06 05:07:35;;;;;;;5.78;2.42;;;;;;;-1.28;75.78;102358.53;5007577;28;20064;-79
2021/03/06 05:10:03;;;;;;;7.22;2.80;;;;;;;-1.40;75.79;102355.72;4990009;28;20062;-80
2021/03/06 05:12:30;;;;;;;6.78;2.95;;;;;;;-1.45;76.23;102357.34;5025053;28;20049;-78
2021/03/06 05:14:57;;;;;;;8.75;2.67;;;;;;;-1.46;76.29;102357.34;5010394;28;20061;-79
2021/03/06 05:17:24;;;;;;;4.38;2.80;;;;;;;-1.33;75.80;102359.31;5012976;28;20116;-79
2021/03/06 05:19:51;;;;;;;7.85;2.40;;;;;;;-1.32;76.38;102355.88;5014255;28;20050;-78
2021/03/06 05:22:18;;;;;;;8.60;3.35;;;;;;;-1.14;75.29;102351.00;5016584;28;20058;-79
2021/03/06 05:24:45;;;;;;;11.43;3.45;;;;;;;-1.22;75.04;102362.94;5033397;28;20045;-79
2021/03/06 05:27:29;;;;;;;12.25;2.53;;;;;;;-1.31;75.39;102362.75;5030175;28;20042;-78
2021/03/06 05:29:56;;;;;;;9.27;2.53;;;;;;;-1.46;76.17;102363.38;5017202;28;20030;-79
2021/03/06 05:32:23;;;;;;;8.52;3.53;;;;;;;-1.40;75.96;102362.59;5031191;28;20018;-78
2021/03/06 05:34:50;;;;;;;5.22;2.88;;;;;;;-1.57;75.84;102367.47;5029562;28;20029;-81
2021/03/06 05:37:17;;;;;;;6.70;2.97;;;;;;;-1.53;76.84;102364.13;5030664;28;20038;-78
2021/03/06 05:39:44;;;;;;;8.68;3.53;;;;;;;-1.67;76.52;102366.41;5021167;28;20037;-78
2021/03/06 05:42:11;;;;;;;9.93;2.70;;;;;;;-1.44;76.48;102363.38;5035037;28;20060;-79
2021/03/06 05:44:38;;;;;;;12.23;4.00;;;;;;;-1.52;76.38;102368.44;5022657;28;20045;-79
2021/03/06 05:47:05;;;;;;;9.50;3.28;;;;;;;-1.44;75.63;102363.38;5018745;28;20041;-78
2021/03/06 05:49:33;;;;;;;7.20;2.15;;;;;;;-1.44;75.97;102365.97;5021045;28;20036;-78
2021/03/06 05:52:00;;;;;;;7.32;2.72;;;;;;;-1.27;75.51;102362.84;5030451;28;20060;-79
2021/03/06 05:54:30;;;;;;;7.28;2.35;;;;;;;-1.24;75.16;102374.97;5023338;28;20019;-79
2021/03/06 05:56:57;;;;;;;10.20;2.20;;;;;;;-1.28;75.30;102373.16;5028449;28;20050;-79
2021/03/06 05:59:27;;;;;;;5.93;2.42;;;;;;;-1.40;75.77;102373.81;5032192;28;20101;-78
2021/03/06 06:01:54;;;;;;;8.23;2.70;;;;;;;-1.34;75.66;102362.72;5014027;28;20140;-78
2021/03/06 06:04:24;;;;;;;6.95;3.10;;;;;;;-1.29;75.79;102361.09;5003869;28;20050;-78
2021/03/06 06:06:51;;;;;;;6.10;3.03;;;;;;;-0.95;74.29;102362.53;5010828;28;20037;-80
2021/03/06 06:09:18;;;;;;;13.65;3.30;;;;;;;-0.76;73.67;102361.13;5030894;28;20042;-78
2021/03/06 06:11:45;;;;;;;9.20;3.20;;;;;;;-0.61;72.99;102352.72;5000041;28;20056;-78
2021/03/06 06:14:12;;;;;;;10.07;3.70;;;;;;;-0.71;72.81;102353.44;5000838;28;20030;-79
2021/03/06 06:16:54;;;;;;;13.13;3.65;;;;;;;-0.42;72.19;102348.66;4982459;28;20038;-79
2021/03/06 06:19:21;;;;;;;9.38;2.70;;;;;;;-0.31;71.69;102349.72;4994361;28;20114;-80
2021/03/06 06:21:49;;;;;;;7.30;2.97;;;;;;;-0.34;72.00;102358.28;4997740;28;20485;-79
2021/03/06 06:24:24;;;;;;;7.03;2.55;;;;;;;-0.15;70.58;102358.53;4994829;28;20141;-79
2021/03/06 06:26:54;;;;;;;13.38;3.72;;;;;;;-0.14;70.78;102362.84;5009508;28;20090;-78
2021/03/06 06:29:35;;;;;;;12.00;4.03;;;;;;;-0.15;70.78;102359.38;5038059;28;20049;-79
2021/03/06 06:32:03;;;;;;;15.43;3.05;;;;;;;0.10;70.69;102368.34;5035745;28;20130;-80
2021/03/06 06:34:30;;;;;;;7.97;2.22;;;;;;;0.15;69.72;102361.50;5039311;28;20079;-79
2021/03/06 06:36:57;;;;;;;9.85;2.80;;;;;;;0.17;70.43;102372.72;5033422;28;20116;-80
2021/03/06 06:39:31;;;;;;;18.80;2.63;;;;;;;0.05;70.64;102379.50;5038766;28;20048;-79
2021/03/06 06:41:59;;;;;;;11.32;2.53;;;;;;;0.36;69.30;102378.13;5036035;28;20060;-77
2021/03/06 06:44:28;;;;;;;10.57;2.20;;;;;;;0.60;68.94;102378.41;5029379;28;20076;-80
2021/03/06 06:47:16;;;;;;;6.57;2.30;;;;;;;0.70;68.38;102380.22;5016945;28;20042;-76
2021/03/06 06:49:51;;;;;;;5.45;2.03;;;;;;;0.42;69.42;102384.25;5024016;28;20498;-78
2021/03/06 06:52:21;;;;;;;7.78;2.28;;;;;;;0.57;69.23;102387.88;5024520;28;20037;-79
2021/03/06 06:54:52;;;;;;;10.13;1.77;;;;;;;1.07;66.83;102392.66;5037444;28;20069;-79
2021/03/06 06:57:19;;;;;;;6.43;2.00;;;;;;;1.20;66.98;102382.41;5049077;28;20021;-78
2021/03/06 07:00:08;;;;;;;11.23;3.95;;;;;;;1.46;66.30;102376.53;5030570;28;20169;-81
2021/03/06 07:02:35;;;;;;;6.78;2.70;;;;;;;2.29;63.19;102380.41;5034483;28;20049;-78
2021/03/06 07:05:05;;;;;;;11.60;3.60;;;;;;;3.96;58.14;102389.13;5033740;28;20582;-80
2021/03/06 07:07:42;;;;;;;8.02;2.58;;;;;;;5.24;53.59;102376.19;5042267;28;20057;-80
2021/03/06 07:10:18;;;;;;;12.40;2.65;;;;;;;4.71;54.64;102380.06;5024912;28;20045;-80
2021/03/06 07:12:58;;;;;;;6.05;2.33;;;;;;;5.06;53.30;102369.38;5031547;28;20148;-78
2021/03/06 07:15:26;;;;;;;7.65;2.08;;;;;;;5.22;51.77;102370.09;5048600;28;20033;-78
2021/03/06 07:17:55;;;;;;;13.48;2.40;;;;;;;4.48;54.72;102377.59;5027293;28;20042;-80
2021/03/06 07:20:22;;;;;;;6.63;2.45;;;;;;;4.88;52.72;102372.13;5008057;28;20194;-82
2021/03/06 07:22:49;;;;;;;6.25;1.88;;;;;;;3.92;56.20;102376.13;5030621;28;20134;-78
2021/03/06 07:25:16;;;;;;;7.03;2.53;;;;;;;6.22;49.75;102375.16;5048292;28;20036;-81
2021/03/06 07:27:44;;;;;;;6.00;2.25;;;;;;;6.66;48.90;102373.66;5045401;28;20097;-84
2021/03/06 07:30:12;;;;;;;6.43;2.42;;;;;;;6.74;47.15;102377.03;5027399;28;20088;-82
2021/03/06 07:32:41;;;;;;;6.05;2.05;;;;;;;7.37;45.93;102363.78;5025151;28;20041;-82
2021/03/06 07:35:10;;;;;;;4.25;1.70;;;;;;;7.71;45.61;102371.03;5033213;28;20046;-81
2021/03/06 07:37:38;;;;;;;7.47;2.20;;;;;;;8.85;42.06;102372.97;5026033;28;20519;-81
2021/03/06 07:40:07;;;;;;;12.90;3.25;;;;;;;10.75;38.24;102365.97;4978571;28;20129;-80
2021/03/06 07:42:55;;;;;;;7.05;2.13;;;;;;;11.02;37.44;102358.94;5023373;28;20063;-81
2021/03/06 07:45:23;;;;;;;10.95;2.92;;;;;;;11.00;36.92;102358.13;5020863;28;20053;-83
2021/03/06 07:47:57;;;;;;;11.23;2.85;;;;;;;11.43;36.95;102358.44;5024927;28;20054;-79
2021/03/06 07:50:27;;;;;;;13.23;2.28;;;;;;;12.39;37.07;102362.84;5001858;28;20466;-80
2021/03/06 07:52:56;;;;;;;5.75;2.55;;;;;;;11.35;36.17;102353.47;5000521;28;20069;-80
2021/03/06 07:55:26;;;;;;;5.15;1.90;;;;;;;11.91;35.96;102348.81;5022744;28;20174;-81
2021/03/06 07:58:03;;;;;;;7.20;2.33;;;;;;;13.76;32.00;102342.16;5018607;28;20054;-83
2021/03/06 08:00:56;;;;;;;5.95;2.15;;;;;;;13.23;32.26;102340.09;5028355;28;20106;-82
2021/03/06 08:03:25;;;;;;;4.72;1.70;;;;;;;14.39;31.34;102338.31;5038136;28;20085;-79
2021/03/06 08:05:56;;;;;;;10.00;2.25;;;;;;;12.94;32.69;102342.16;5038709;28;20085;-80
2021/03/06 08:08:33;;;;;;;14.82;2.47;;;;;;;11.24;35.31;102352.94;5018120;28;20061;-81
2021/03/06 08:11:08;;;;;;;8.32;2.03;;;;;;;10.40;37.43;102348.63;5042329;28;20081;-79
2021/03/06 08:13:45;;;;;;;7.70;2.22;;;;;;;10.77;36.62;102352.75;5032641;28;20546;-81
2021/03/06 08:16:27;;;;;;;11.75;2.42;;;;;;;10.22;38.65;102351.78;5009821;28;20116;-83
2021/03/06 08:18:58;;;;;;;10.00;1.70;;;;;;;10.21;38.24;102364.06;5029387;28;20057;-83
2021/03/06 08:21:36;;;;;;;5.50;1.60;;;;;;;12.60;34.07;102363.78;4998693;28;20056;-82
2021/03/06 08:24:15;;;;;;;6.30;1.95;;;;;;;13.87;32.12;102353.16;5021414;28;20045;-78
2021/03/06 08:26:42;;;;;;;9.68;1.90;;;;;;;12.82;33.43;102355.84;5032422;28;20064;-83
2021/03/06 08:29:24;;;;;;;6.85;1.70;;;;;;;12.83;32.41;102347.88;5032069;28;20069;-82
2021/03/06 08:32:23;;;;;;;6.57;1.95;;;;;;;11.01;35.83;102356.34;5026998;28;20519;-82
2021/03/06 08:34:53;;;;;;;6.30;1.80;;;;;;;11.21;36.43;102351.25;5041414;28;20049;-79
2021/03/06 08:37:20;;;;;;;11.25;1.85;;;;;;;10.81;37.69;102363.16;5029912;28;20077;-82
2021/03/06 08:39:47;;;;;;;10.32;2.15;;;;;;;10.93;39.10;102364.50;5041460;28;20136;-81
2021/03/06 08:42:19;;;;;;;12.85;2.17;;;;;;;10.98;37.27;102367.00;5023447;28;20066;-82
2021/03/06 08:44:46;;;;;;;8.00;2.00;;;;;;;10.86;38.59;102365.63;5035550;28;20072;-82
2021/03/06 08:47:26;;;;;;;4.68;1.70;;;;;;;12.18;36.13;102356.59;5007258;28;20058;-82
2021/03/06 08:49:54;;;;;;;11.23;2.15;;;;;;;9.52;40.31;102362.53;5042396;28;20049;-82
2021/03/06 08:52:22;;;;;;;7.90;2.10;;;;;;;11.77;37.44;102356.34;5047732;28;20067;-83
2021/03/06 08:54:49;;;;;;;8.82;2.42;;;;;;;13.10;34.82;102351.16;5048054;28;20062;-81
2021/03/06 08:57:36;;;;;;;10.65;1.83;;;;;;;10.98;37.76;102367.00;5007810;28;20060;-82
2021/03/06 09:00:11;;;;;;;6.32;2.40;;;;;;;10.72;39.03;102357.31;5056971;28;20124;-80
2021/03/06 09:02:38;;;;;;;6.63;1.80;;;;;;;10.68;39.38;102363.59;5049121;28;20049;-80
2021/03/06 09:05:12;;;;;;;8.88;1.90;;;;;;;9.93;40.79;102356.13;5026154;28;20077;-79
2021/03/06 09:07:41;;;;;;;11.05;2.30;;;;;;;11.43;38.13;102359.28;5041348;28;20046;-80
2021/03/06 09:10:34;;;;;;;9.90;2.17;;;;;;;11.77;37.50;102363.41;5045680;28;20393;-82
2021/03/06 09:13:15;;;;;;;7.70;1.85;;;;;;;11.86;37.46;102365.72;5029329;28;20048;-82
2021/03/06 09:15:53;;;;;;;12.98;2.10;;;;;;;12.20;37.25;102370.59;5030022;28;20054;-82
2021/03/06 09:18:21;;;;;;;7.43;1.95;;;;;;;12.94;34.99;102360.66;5020820;28;20053;-81
2021/03/06 09:20:51;;;;;;;11.68;1.88;;;;;;;12.92;34.95;102355.44;5025825;28;20081;-82
2021/03/06 09:23:42;;;;;;;8.70;1.85;;;;;;;12.51;35.82;102374.72;5039553;28;20049;-81
2021/03/06 09:26:21;;;;;;;8.38;2.10;;;;;;;12.85;35.86;102368.94;5036226;28;20081;-79
2021/03/06 09:28:50;;;;;;;9.30;2.33;;;;;;;12.19;37.28;102370.66;5038650;28;20068;-81
2021/03/06 09:31:27;;;;;;;7.15;2.17;;;;;;;13.08;35.19;102368.88;5032782;28;20117;-80
2021/03/06 09:33:55;;;;;;;7.50;1.98;;;;;;;11.68;37.79;102372.50;5029601;28;20062;-81
2021/03/06 09:36:23;;;;;;;9.82;1.98;;;;;;;9.81;42.02;102364.38;5022499;28;20049;-80
2021/03/06 09:38:54;;;;;;;8.38;1.67;;;;;;;7.34;48.07;102379.56;5012842;28;20073;-81
2021/03/06 09:41:23;;;;;;;8.50;2.00;;;;;;;6.59;50.69;102384.22;5041879;28;20104;-80
2021/03/06 09:43:52;;;;;;;11.52;2.22;;;;;;;6.26;52.87;102377.72;5001417;28;20134;-79
2021/03/06 09:46:22;;;;;;;9.38;2.40;;;;;;;6.45;53.00;102378.34;5035188;28;20073;-79
2021/03/06 09:48:52;;;;;;;10.65;1.73;;;;;;;6.54;53.42;102375.59;5037280;28;20045;-80
2021/03/06 09:51:21;;;;;;;10.55;1.75;;;;;;;6.52;53.53;102379.09;5021519;28;20085;-79
2021/03/06 09:53:59;;;;;;;9.27;1.95;;;;;;;6.38;53.95;102378.44;5041766;28;20033;-80
2021/03/06 09:56:29;;;;;;;8.82;1.55;;;;;;;4.87;58.51;102379.09;5018257;28;20133;-80
2021/03/06 09:58:59;;;;;;;14.35;2.47;;;;;;;5.26;58.71;102370.03;5034776;28;20041;-80
2021/03/06 10:01:27;;;;;;;10.60;1.95;;;;;;;5.62;57.96;102361.88;5027501;28;20081;-81
2021/03/06 10:03:55;;;;;;;17.58;2.25;;;;;;;5.29;58.89;102370.03;5019003;28;20249;-78
2021/03/06 10:06:25;;;;;;;16.02;1.95;;;;;;;4.91;60.58;102374.69;5040585;28;20088;-79
2021/03/06 10:08:54;;;;;;;10.60;2.30;;;;;;;4.57;61.32;102367.97;5026958;28;20048;-80
2021/03/06 10:11:28;;;;;;;11.10;2.05;;;;;;;5.39;59.98;102359.50;5045380;28;20099;-79
2021/03/06 10:13:55;;;;;;;12.65;2.28;;;;;;;5.97;57.75;102366.75;5035648;28;20150;-80
2021/03/06 10:16:23;;;;;;;12.55;2.20;;;;;;;6.09;58.36;102364.84;5032627;28;20057;-80
2021/03/06 10:18:51;;;;;;;17.88;2.40;;;;;;;6.14;57.45;102350.84;5027906;28;20034;-79
2021/03/06 10:21:20;;;;;;;8.45;2.50;;;;;;;5.77;58.06;102353.88;5050029;28;20140;-79
2021/03/06 10:23:57;;;;;;;10.60;2.00;;;;;;;5.81;59.35;102353.84;5036432;28;20061;-80
2021/03/06 10:26:25;;;;;;;8.00;1.67;;;;;;;5.26;59.94;102361.34;5000451;28;20073;-78
2021/03/06 10:28:58;;;;;;;11.18;2.05;;;;;;;5.50;60.22;102352.44;5019092;28;20046;-81
2021/03/06 10:31:36;;;;;;;7.55;1.60;;;;;;;5.53;60.06;102353.25;5005552;28;20084;-78
2021/03/06 10:34:18;;;;;;;8.40;1.92;;;;;;;5.77;59.31;102346.03;5017250;28;20058;-79
2021/03/06 10:37:04;;;;;;;12.93;2.00;;;;;;;5.30;61.07;102344.78;5023883;28;20732;-80
2021/03/06 10:39:31;;;;;;;12.10;1.95;;;;;;;5.53;60.36;102348.03;5020066;28;20854;-80
2021/03/06 10:41:59;;;;;;;18.42;2.65;;;;;;;5.30;60.97;102348.25;5016650;28;20061;-79
2021/03/06 10:44:42;;;;;;;9.68;2.70;;;;;;;5.47;61.18;102347.22;5045051;28;20061;-79
2021/03/06 10:47:09;;;;;;;4.95;1.80;;;;;;;4.77;63.53;102361.75;5016180;28;20033;-80
2021/03/06 10:49:41;;;;;;;8.73;2.17;;;;;;;4.65;64.41;102372.28;5017610;28;20053;-78
2021/03/06 10:52:23;;;;;;;7.70;1.75;;;;;;;4.97;63.67;102364.22;5048327;28;20049;-79
2021/03/06 10:54:51;;;;;;;8.82;2.10;;;;;;;4.52;64.82;102361.06;5026553;28;20046;-78
2021/03/06 10:57:19;;;;;;;7.28;1.52;;;;;;;4.74;63.82;102356.56;5027098;28;20078;-81
2021/03/06 10:59:46;;;;;;;5.55;1.85;;;;;;;4.20;66.27;102369.06;5031149;28;20045;-80
2021/03/06 11:02:24;;;;;;;10.68;2.97;;;;;;;4.05;67.28;102372.56;5011946;28;20073;-80
2021/03/06 11:04:53;;;;;;;12.75;2.60;;;;;;;4.31;66.36;102368.09;5020530;28;20105;-81
2021/03/06 11:07:28;;;;;;;9.65;2.67;;;;;;;4.63;65.68;102369.66;5016952;28;20925;-80
2021/03/06 11:09:59;;;;;;;10.20;2.75;;;;;;;4.65;66.32;102367.06;5038004;28;20136;-80
2021/03/06 11:12:30;;;;;;;7.75;2.60;;;;;;;3.93;70.58;102375.25;4983787;28;20058;-81
2021/03/06 11:15:15;;;;;;;10.68;2.67;;;;;;;3.55;74.84;102378.78;5033959;28;20134;-79
2021/03/06 11:17:44;;;;;;;12.98;3.47;;;;;;;3.08;78.44;102377.09;5034089;28;20067;-80
2021/03/06 11:20:13;;;;;;;12.80;3.47;;;;;;;3.57;79.31;102374.47;5008626;28;20049;-80
2021/03/06 11:22:41;;;;;;;9.50;3.65;;;;;;;4.18;77.29;102379.47;5034532;28;20083;-78
2021/03/06 11:25:09;;;;;;;15.13;3.63;;;;;;;4.29;74.73;102369.88;5024342;28;20076;-79
2021/03/06 11:27:45;;;;;;;8.57;2.80;;;;;;;4.35;72.78;102368.97;5041433;28;20064;-79
2021/03/06 11:30:13;;;;;;;6.13;2.67;;;;;;;4.10;74.47;102372.53;5024325;28;20064;-79
2021/03/06 11:32:41;;;;;;;6.30;2.40;;;;;;;3.69;75.61;102370.94;5035113;28;20049;-78
2021/03/06 11:35:09;;;;;;;9.32;3.05;;;;;;;3.37;78.19;102360.59;5013465;28;20099;-78
2021/03/06 11:37:36;;;;;;;6.75;2.58;;;;;;;3.83;76.72;102357.88;5045661;28;20110;-79
2021/03/06 11:40:04;;;;;;;9.18;3.33;;;;;;;3.30;76.30;102346.72;5045757;28;20062;-80